Time;durP1;ratioP1;P1;durP2;ratioP2;P2;SDS_P1;SDS_P2;PMS_P1;PMS_P2;Temp;Humidity;BMP_temperature;BMP_pressure;BME280_temperature;BME280_humidity;BME280_pressure;Samples;Min_cycle;Max_cycle;Signal;HPM_P1;HPM_P2
2023/07/29 00:01:27;;;;;;;1.27;1.00;;;;;;;;;;5073746;28;20196;-84
2023/07/29 00:03:56;;;;;;;0.40;0.40;;;;;;;;;;5074200;28;20196;-87
2023/07/29 00:06:26;;;;;;;1.10;0.87;;;;;;;;;;5074444;28;20241;-86
2023/07/29 00:08:54;;;;;;;5.03;1.60;;;;;;;;;;5074199;28;20202;-87
2023/07/29 00:11:23;;;;;;;3.27;1.43;;;;;;;;;;5073770;28;20226;-84
2023/07/29 00:13:52;;;;;;;1.30;0.60;;;;;;;;;;5073991;28;20198;-84
2023/07/29 00:16:22;;;;;;;5.57;2.43;;;;;;;;;;5074190;28;20203;-84
2023/07/29 00:18:50;;;;;;;3.30;1.80;;;;;;;;;;5073469;28;20224;-85
2023/07/29 00:21:19;;;;;;;6.37;1.77;;;;;;;;;;5073755;28;20203;-84
2023/07/29 00:23:49;;;;;;;4.47;2.30;;;;;;;;;;5073905;28;20194;-84
2023/07/29 00:26:17;;;;;;;0.70;0.70;;;;;;;;;;5073581;28;20199;-84
2023/07/29 00:28:46;;;;;;;3.30;1.27;;;;;;;;;;5073633;28;20198;-83
2023/07/29 00:31:14;;;;;;;0.40;0.40;;;;;;;;;;5073502;28;20234;-84
2023/07/29 00:33:43;;;;;;;2.00;1.27;;;;;;;;;;5073647;28;20202;-84
2023/07/29 00:36:11;;;;;;;0.57;0.57;;;;;;;;;;5073661;28;20213;-84
2023/07/29 00:38:40;;;;;;;1.13;1.03;;;;;;;;;;5073673;28;20219;-84
2023/07/29 00:41:13;;;;;;;1.40;1.30;;;;;;;;;;5073574;28;20220;-83
2023/07/29 00:43:41;;;;;;;2.73;1.67;;;;;;;;;;5073291;28;20206;-84
2023/07/29 00:46:12;;;;;;;0.67;0.60;;;;;;;;;;5072826;28;20221;-84
2023/07/29 00:48:41;;;;;;;7.60;1.83;;;;;;;;;;5073583;28;20194;-84
2023/07/29 00:51:10;;;;;;;2.13;0.93;;;;;;;;;;5073660;28;20208;-84
2023/07/29 00:53:38;;;;;;;2.40;1.83;;;;;;;;;;5072644;28;20202;-83
2023/07/29 00:56:07;;;;;;;1.00;0.73;;;;;;;;;;5073212;28;20198;-84
2023/07/29 00:58:37;;;;;;;2.90;1.30;;;;;;;;;;5073288;28;20225;-84
2023/07/29 01:01:05;;;;;;;0.80;0.80;;;;;;;;;;5072627;28;20201;-84
2023/07/29 01:03:34;;;;;;;1.20;1.10;;;;;;;;;;5072869;28;20201;-87
2023/07/29 01:06:08;;;;;;;0.60;0.60;;;;;;;;;;5073167;28;20219;-87
2023/07/29 01:08:40;;;;;;;1.70;1.13;;;;;;;;;;5072675;28;20188;-87
2023/07/29 01:11:15;;;;;;;1.73;1.63;;;;;;;;;;5072346;28;20201;-86
2023/07/29 01:13:46;;;;;;;0.50;0.50;;;;;;;;;;5072945;28;20204;-86
2023/07/29 01:16:18;;;;;;;2.03;1.03;;;;;;;;;;5072815;28;20197;-87
2023/07/29 01:18:48;;;;;;;8.77;1.93;;;;;;;;;;5072393;28;20218;-87
2023/07/29 01:21:17;;;;;;;1.13;0.93;;;;;;;;;;5072440;28;20206;-87
2023/07/29 01:23:47;;;;;;;0.77;0.77;;;;;;;;;;5072941;28;20222;-86
2023/07/29 01:26:15;;;;;;;1.00;1.00;;;;;;;;;;5072928;28;20205;-87
2023/07/29 01:28:44;;;;;;;2.27;0.77;;;;;;;;;;5072032;28;20198;-86
2023/07/29 01:31:15;;;;;;;4.63;2.17;;;;;;;;;;5072554;28;20241;-87
2023/07/29 01:33:46;;;;;;;9.33;2.03;;;;;;;;;;5072619;28;20282;-86
2023/07/29 01:36:17;;;;;;;4.20;1.50;;;;;;;;;;5072785;28;20212;-87
2023/07/29 01:38:46;;;;;;;1.83;1.33;;;;;;;;;;5072282;28;20229;-87
2023/07/29 01:41:16;;;;;;;5.20;1.43;;;;;;;;;;5072005;28;20190;-86
2023/07/29 01:43:44;;;;;;;1.20;1.03;;;;;;;;;;5072157;28;20209;-87
2023/07/29 01:46:13;;;;;;;1.80;1.53;;;;;;;;;;5072254;28;20208;-86
2023/07/29 01:48:42;;;;;;;0.97;0.93;;;;;;;;;;5072431;28;20261;-87
2023/07/29 01:51:12;;;;;;;6.10;1.60;;;;;;;;;;5072019;28;20194;-86
2023/07/29 01:53:41;;;;;;;5.63;1.27;;;;;;;;;;5071923;28;20210;-86
2023/07/29 01:56:09;;;;;;;0.67;0.50;;;;;;;;;;5071944;28;20228;-87
2023/07/29 01:58:39;;;;;;;2.10;1.37;;;;;;;;;;5071758;28;20232;-87
2023/07/29 02:01:07;;;;;;;2.33;1.73;;;;;;;;;;5071554;28;20228;-86
2023/07/29 02:03:36;;;;;;;2.20;2.03;;;;;;;;;;5071445;28;20257;-86
2023/07/29 02:06:04;;;;;;;1.97;1.50;;;;;;;;;;5071999;28;20217;-86
2023/07/29 02:08:33;;;;;;;1.10;0.90;;;;;;;;;;5072213;28;20224;-86
2023/07/29 02:11:01;;;;;;;1.60;0.80;;;;;;;;;;5071743;28;20205;-87
2023/07/29 02:13:30;;;;;;;1.50;0.90;;;;;;;;;;5071753;28;20215;-86
2023/07/29 02:16:00;;;;;;;1.17;0.87;;;;;;;;;;5072126;28;20271;-86
2023/07/29 02:18:28;;;;;;;2.23;1.07;;;;;;;;;;5072046;28;20221;-87
2023/07/29 02:20:56;;;;;;;11.23;1.13;;;;;;;;;;5071164;28;20190;-86
2023/07/29 02:23:25;;;;;;;3.70;1.13;;;;;;;;;;5071662;28;20198;-86
2023/07/29 02:25:53;;;;;;;1.87;1.03;;;;;;;;;;5071611;28;20193;-87
2023/07/29 02:28:22;;;;;;;2.93;1.47;;;;;;;;;;5071752;28;20201;-87
2023/07/29 02:31:10;;;;;;;0.73;0.50;;;;;;;;;;5071040;28;20204;-87
2023/07/29 02:33:40;;;;;;;2.80;1.63;;;;;;;;;;5071834;28;20213;-87
2023/07/29 02:36:09;;;;;;;9.17;1.83;;;;;;;;;;5071669;28;20194;-86
2023/07/29 02:38:37;;;;;;;5.80;2.30;;;;;;;;;;5071453;28;20215;-87
2023/07/29 02:41:06;;;;;;;0.87;0.70;;;;;;;;;;5071607;28;20254;-87
2023/07/29 02:43:34;;;;;;;2.50;1.17;;;;;;;;;;5071753;28;20221;-86
2023/07/29 02:46:03;;;;;;;2.63;1.77;;;;;;;;;;5071990;28;20304;-87
2023/07/29 02:48:31;;;;;;;1.10;0.97;;;;;;;;;;5071282;28;20198;-87
2023/07/29 02:51:01;;;;;;;1.93;1.80;;;;;;;;;;5071484;28;20230;-87
2023/07/29 02:53:30;;;;;;;2.00;1.10;;;;;;;;;;5071664;28;20210;-87
2023/07/29 02:55:58;;;;;;;6.37;1.37;;;;;;;;;;5071725;28;20202;-86
2023/07/29 02:58:27;;;;;;;2.60;1.93;;;;;;;;;;5071087;28;20297;-87
2023/07/29 03:00:55;;;;;;;1.60;1.10;;;;;;;;;;5071261;28;20226;-86
2023/07/29 03:03:24;;;;;;;3.47;1.20;;;;;;;;;;5071614;28;20355;-87
2023/07/29 03:05:58;;;;;;;0.50;0.50;;;;;;;;;;5070519;28;20324;-86
2023/07/29 03:08:28;;;;;;;1.00;1.00;;;;;;;;;;5071729;28;20202;-86
2023/07/29 03:10:57;;;;;;;2.67;0.90;;;;;;;;;;5071365;28;20204;-86
2023/07/29 03:13:26;;;;;;;0.93;0.70;;;;;;;;;;5073640;28;20199;-87
2023/07/29 03:15:54;;;;;;;1.80;0.90;;;;;;;;;;5075195;28;20209;-87
2023/07/29 03:18:23;;;;;;;4.00;1.17;;;;;;;;;;5075367;28;20232;-87
2023/07/29 03:20:51;;;;;;;3.40;0.63;;;;;;;;;;5074947;28;20206;-87
2023/07/29 03:23:20;;;;;;;1.17;0.70;;;;;;;;;;5075324;28;20202;-87
2023/07/29 03:25:56;;;;;;;1.70;0.70;;;;;;;;;;5075441;28;20211;-86
2023/07/29 03:28:25;;;;;;;1.47;1.07;;;;;;;;;;5075098;28;20193;-86
2023/07/29 03:30:53;;;;;;;4.23;2.43;;;;;;;;;;5074369;28;20228;-86
2023/07/29 03:33:22;;;;;;;1.40;1.03;;;;;;;;;;5074687;28;20198;-86
2023/07/29 03:35:50;;;;;;;9.13;3.60;;;;;;;;;;5074775;28;20201;-85
2023/07/29 03:38:19;;;;;;;0.50;0.50;;;;;;;;;;5074459;28;20222;-85
2023/07/29 03:40:47;;;;;;;1.70;0.93;;;;;;;;;;5073895;28;20196;-85
2023/07/29 03:43:18;;;;;;;3.23;2.10;;;;;;;;;;5074780;28;20221;-84
2023/07/29 03:45:46;;;;;;;1.73;1.00;;;;;;;;;;5074717;28;20250;-84
2023/07/29 03:48:15;;;;;;;2.20;1.80;;;;;;;;;;5074580;28;20261;-84
2023/07/29 03:50:43;;;;;;;3.47;1.13;;;;;;;;;;5074412;28;20213;-85
2023/07/29 03:53:12;;;;;;;1.23;1.07;;;;;;;;;;5074682;28;20190;-84
2023/07/29 03:55:40;;;;;;;2.43;1.33;;;;;;;;;;5074420;28;20198;-84
2023/07/29 03:58:09;;;;;;;3.03;1.60;;;;;;;;;;5074118;28;20209;-84
2023/07/29 04:00:38;;;;;;;1.83;1.20;;;;;;;;;;5074038;28;20230;-84
2023/07/29 04:03:07;;;;;;;2.53;0.97;;;;;;;;;;5074448;28;20293;-84
2023/07/29 04:05:36;;;;;;;2.00;1.13;;;;;;;;;;5074389;28;20231;-84
2023/07/29 04:08:04;;;;;;;3.33;1.00;;;;;;;;;;5073620;28;20206;-84
2023/07/29 04:10:34;;;;;;;5.97;1.77;;;;;;;;;;5074260;28;20211;-84
2023/07/29 04:13:03;;;;;;;1.57;1.47;;;;;;;;;;5073798;28;20218;-84
2023/07/29 04:15:31;;;;;;;1.60;1.50;;;;;;;;;;5073916;28;20209;-85
2023/07/29 04:18:01;;;;;;;5.20;1.80;;;;;;;;;;5073777;28;20201;-86
2023/07/29 04:20:30;;;;;;;1.83;1.07;;;;;;;;;;5073653;28;20236;-87
2023/07/29 04:22:59;;;;;;;0.83;0.83;;;;;;;;;;5073504;28;20202;-87
2023/07/29 04:25:27;;;;;;;2.07;0.87;;;;;;;;;;5073360;28;20197;-85
2023/07/29 04:27:57;;;;;;;0.40;0.40;;;;;;;;;;5073761;28;20214;-84
2023/07/29 04:30:26;;;;;;;0.60;0.60;;;;;;;;;;5073687;28;20204;-84
2023/07/29 04:32:54;;;;;;;5.60;2.20;;;;;;;;;;5072919;28;20239;-84
2023/07/29 04:35:24;;;;;;;2.13;1.43;;;;;;;;;;5073531;28;20323;-84
2023/07/29 04:37:53;;;;;;;9.63;2.20;;;;;;;;;;5073464;28;20256;-84
2023/07/29 04:40:22;;;;;;;5.63;1.93;;;;;;;;;;5073564;28;20238;-84
2023/07/29 04:42:51;;;;;;;2.33;1.00;;;;;;;;;;5072956;28;20212;-84
2023/07/29 04:45:20;;;;;;;5.43;2.07;;;;;;;;;;5073453;28;20259;-84
2023/07/29 04:47:48;;;;;;;5.17;1.33;;;;;;;;;;5073692;28;20203;-85
2023/07/29 04:50:17;;;;;;;3.30;1.93;;;;;;;;;;5073753;28;20226;-84
2023/07/29 04:52:47;;;;;;;2.03;1.57;;;;;;;;;;5072695;28;20212;-84
2023/07/29 04:55:15;;;;;;;2.47;1.40;;;;;;;;;;5073292;28;20214;-84
2023/07/29 04:57:44;;;;;;;1.47;1.37;;;;;;;;;;5073138;28;20265;-84
2023/07/29 05:00:13;;;;;;;1.03;0.80;;;;;;;;;;5072315;28;20218;-85
2023/07/29 05:02:41;;;;;;;1.30;0.80;;;;;;;;;;5073044;28;20194;-85
2023/07/29 05:05:10;;;;;;;0.50;0.50;;;;;;;;;;5073330;28;20232;-84
2023/07/29 05:07:38;;;;;;;2.10;1.27;;;;;;;;;;5072901;28;20247;-85
2023/07/29 05:10:09;;;;;;;3.10;1.00;;;;;;;;;;5072740;28;20194;-85
2023/07/29 05:12:38;;;;;;;1.53;1.07;;;;;;;;;;5073325;28;20207;-84
2023/07/29 05:15:07;;;;;;;2.53;1.33;;;;;;;;;;5073025;28;20212;-85
2023/07/29 05:17:36;;;;;;;4.03;1.10;;;;;;;;;;5072481;28;20220;-85
2023/07/29 05:20:04;;;;;;;14.10;2.30;;;;;;;;;;5072390;28;20268;-85
2023/07/29 05:22:33;;;;;;;3.27;1.77;;;;;;;;;;5072629;28;20207;-84
2023/07/29 05:25:02;;;;;;;3.00;1.90;;;;;;;;;;5072941;28;20203;-84
2023/07/29 05:27:31;;;;;;;0.80;0.80;;;;;;;;;;5072228;28;20215;-84
2023/07/29 05:30:00;;;;;;;2.77;1.33;;;;;;;;;;5072367;28;20183;-84
2023/07/29 05:32:29;;;;;;;3.77;2.33;;;;;;;;;;5072284;28;20231;-84
2023/07/29 05:34:58;;;;;;;4.23;1.93;;;;;;;;;;5071481;28;20199;-84
2023/07/29 05:37:26;;;;;;;1.37;1.03;;;;;;;;;;5071974;28;20200;-84
2023/07/29 05:39:55;;;;;;;0.83;0.83;;;;;;;;;;5072914;28;20226;-84
2023/07/29 05:42:23;;;;;;;2.70;2.47;;;;;;;;;;5072478;28;20201;-84
2023/07/29 05:44:53;;;;;;;1.50;1.03;;;;;;;;;;5071891;28;20208;-84
2023/07/29 05:47:22;;;;;;;4.03;3.80;;;;;;;;;;5072253;28;20195;-84
2023/07/29 05:49:50;;;;;;;5.57;1.90;;;;;;;;;;5071891;28;20254;-84
2023/07/29 05:52:19;;;;;;;4.13;2.30;;;;;;;;;;5071864;28;20225;-84
2023/07/29 05:54:47;;;;;;;2.43;1.50;;;;;;;;;;5071571;28;20205;-84
2023/07/29 05:57:16;;;;;;;1.53;1.43;;;;;;;;;;5072328;28;20203;-84
2023/07/29 05:59:44;;;;;;;0.63;0.63;;;;;;;;;;5071967;28;20228;-84
2023/07/29 06:02:14;;;;;;;2.03;1.43;;;;;;;;;;5072154;28;20217;-84
2023/07/29 06:04:42;;;;;;;2.70;1.20;;;;;;;;;;5071638;28;20199;-84
2023/07/29 06:07:11;;;;;;;0.83;0.83;;;;;;;;;;5072088;28;20224;-85
2023/07/29 06:09:39;;;;;;;1.57;1.03;;;;;;;;;;5072144;28;20230;-84
2023/07/29 06:12:09;;;;;;;2.13;1.70;;;;;;;;;;5071525;28;20209;-85
2023/07/29 06:14:37;;;;;;;0.60;0.60;;;;;;;;;;5071893;28;20205;-84
2023/07/29 06:17:07;;;;;;;2.73;1.67;;;;;;;;;;5071861;28;20205;-85
2023/07/29 06:19:37;;;;;;;1.70;0.77;;;;;;;;;;5071391;28;20246;-87
2023/07/29 06:22:06;;;;;;;2.90;1.40;;;;;;;;;;5071660;28;20212;-86
2023/07/29 06:24:35;;;;;;;1.80;1.13;;;;;;;;;;5071565;28;20206;-84
2023/07/29 06:27:03;;;;;;;6.37;2.00;;;;;;;;;;5071698;28;20193;-84
2023/07/29 06:29:32;;;;;;;2.77;2.57;;;;;;;;;;5071144;28;20195;-84
2023/07/29 06:32:00;;;;;;;0.40;0.40;;;;;;;;;;5071408;28;20240;-86
2023/07/29 06:34:28;;;;;;;1.50;1.40;;;;;;;;;;5071903;28;20208;-86
2023/07/29 06:36:58;;;;;;;2.37;1.50;;;;;;;;;;5071042;28;20194;-86
2023/07/29 06:39:27;;;;;;;1.60;1.43;;;;;;;;;;5071837;28;20210;-86
2023/07/29 06:41:55;;;;;;;5.73;1.17;;;;;;;;;;5071626;28;20217;-86
2023/07/29 06:44:24;;;;;;;3.80;1.27;;;;;;;;;;5071900;28;20208;-87
2023/07/29 06:46:52;;;;;;;6.33;2.83;;;;;;;;;;5073230;28;20227;-87
2023/07/29 06:49:21;;;;;;;2.13;1.30;;;;;;;;;;5075668;28;20258;-86
2023/07/29 06:51:49;;;;;;;0.73;0.73;;;;;;;;;;5075706;28;20199;-87
2023/07/29 06:54:19;;;;;;;2.70;1.00;;;;;;;;;;5075212;28;20240;-87
2023/07/29 06:56:48;;;;;;;1.40;1.30;;;;;;;;;;5075620;28;20206;-86
2023/07/29 06:59:16;;;;;;;3.13;1.13;;;;;;;;;;5075742;28;20223;-86
2023/07/29 07:01:45;;;;;;;0.87;0.87;;;;;;;;;;5075169;28;20217;-87
2023/07/29 07:04:13;;;;;;;1.70;1.57;;;;;;;;;;5074812;28;20201;-87
2023/07/29 07:06:42;;;;;;;1.77;1.50;;;;;;;;;;5075331;28;20254;-86
2023/07/29 07:09:10;;;;;;;1.43;1.00;;;;;;;;;;5075470;28;20199;-86
2023/07/29 07:11:40;;;;;;;6.93;2.90;;;;;;;;;;5074917;28;20203;-87
2023/07/29 07:14:08;;;;;;;4.83;1.50;;;;;;;;;;5074796;28;20212;-87
2023/07/29 07:16:39;;;;;;;3.10;0.80;;;;;;;;;;5075416;28;20206;-86
2023/07/29 07:19:08;;;;;;;3.03;1.07;;;;;;;;;;5074969;28;20212;-87
2023/07/29 07:21:36;;;;;;;1.60;0.97;;;;;;;;;;5074361;28;20223;-87
2023/07/29 07:24:05;;;;;;;1.53;1.37;;;;;;;;;;5074943;28;20201;-84
2023/07/29 07:26:33;;;;;;;2.83;1.43;;;;;;;;;;5074803;28;20303;-84
2023/07/29 07:29:04;;;;;;;2.00;1.27;;;;;;;;;;5074942;28;20205;-84
2023/07/29 07:31:35;;;;;;;2.77;1.53;;;;;;;;;;5074030;28;20190;-85
2023/07/29 07:34:03;;;;;;;0.43;0.43;;;;;;;;;;5074925;28;20201;-84
2023/07/29 07:36:32;;;;;;;0.70;0.70;;;;;;;;;;5074626;28;20240;-84
2023/07/29 07:39:00;;;;;;;1.57;1.00;;;;;;;;;;5074729;28;20260;-85
2023/07/29 07:41:29;;;;;;;1.93;0.90;;;;;;;;;;5074137;28;20206;-85
2023/07/29 07:43:57;;;;;;;0.80;0.80;;;;;;;;;;5074509;28;20205;-85
2023/07/29 07:46:30;;;;;;;12.07;2.63;;;;;;;;;;5074669;28;20210;-84
2023/07/29 07:48:59;;;;;;;4.53;1.40;;;;;;;;;;5074604;28;20205;-86
2023/07/29 07:51:27;;;;;;;2.23;1.10;;;;;;;;;;5074358;28;20200;-86
2023/07/29 07:53:55;;;;;;;5.53;1.83;;;;;;;;;;5074837;28;20211;-85
2023/07/29 07:56:24;;;;;;;7.10;3.60;;;;;;;;;;5074054;28;20202;-83
2023/07/29 07:58:53;;;;;;;3.97;1.23;;;;;;;;;;5073030;28;20297;-85
2023/07/29 08:01:21;;;;;;;5.57;1.37;;;;;;;;;;5073900;28;20217;-86
2023/07/29 08:03:51;;;;;;;1.53;1.00;;;;;;;;;;5074339;28;20197;-87
2023/07/29 08:06:21;;;;;;;1.33;1.10;;;;;;;;;;5073765;28;20222;-87
2023/07/29 08:08:49;;;;;;;4.73;1.67;;;;;;;;;;5074698;28;20206;-87
2023/07/29 08:11:18;;;;;;;6.33;1.40;;;;;;;;;;5074100;28;20204;-87
2023/07/29 08:13:46;;;;;;;7.77;1.93;;;;;;;;;;5074015;28;20278;-86
2023/07/29 08:16:15;;;;;;;2.23;1.80;;;;;;;;;;5073543;28;20204;-87
2023/07/29 08:18:43;;;;;;;3.93;1.70;;;;;;;;;;5074367;28;20210;-87
2023/07/29 08:21:13;;;;;;;1.27;1.17;;;;;;;;;;5073799;28;20212;-86
2023/07/29 08:23:42;;;;;;;1.13;1.13;;;;;;;;;;5073564;28;20196;-85
2023/07/29 08:26:10;;;;;;;1.43;1.33;;;;;;;;;;5073615;28;20200;-84
2023/07/29 08:28:39;;;;;;;2.33;1.27;;;;;;;;;;5073685;28;20233;-84
2023/07/29 08:31:08;;;;;;;2.73;1.20;;;;;;;;;;5073231;28;20209;-84
2023/07/29 08:33:37;;;;;;;2.83;1.57;;;;;;;;;;5073055;28;20289;-84
2023/07/29 08:36:06;;;;;;;1.73;1.33;;;;;;;;;;5074232;28;20202;-84
2023/07/29 08:38:36;;;;;;;1.60;1.00;;;;;;;;;;5073471;28;20200;-84
2023/07/29 08:41:07;;;;;;;1.00;0.93;;;;;;;;;;5073184;28;20229;-85
2023/07/29 08:43:38;;;;;;;2.23;1.33;;;;;;;;;;5073532;28;20223;-84
2023/07/29 08:46:07;;;;;;;8.90;1.80;;;;;;;;;;5073588;28;20205;-85
2023/07/29 08:48:42;;;;;;;1.60;1.00;;;;;;;;;;5073758;28;20199;-86
2023/07/29 08:51:11;;;;;;;2.63;1.30;;;;;;;;;;5073296;28;20207;-87
2023/07/29 08:53:41;;;;;;;3.53;1.77;;;;;;;;;;5073372;28;20212;-86
2023/07/29 08:56:10;;;;;;;8.23;3.43;;;;;;;;;;5073373;28;20206;-86
2023/07/29 08:58:39;;;;;;;1.87;1.30;;;;;;;;;;5073129;28;20209;-87
2023/07/29 09:01:07;;;;;;;1.77;1.23;;;;;;;;;;5073283;28;20198;-86
2023/07/29 09:03:36;;;;;;;3.10;1.37;;;;;;;;;;5073549;28;20301;-86
2023/07/29 09:06:05;;;;;;;0.97;0.83;;;;;;;;;;5073446;28;20317;-87
2023/07/29 09:08:34;;;;;;;8.27;2.07;;;;;;;;;;5072936;28;20197;-86
2023/07/29 09:11:04;;;;;;;5.43;2.50;;;;;;;;;;5071625;28;20246;-86
2023/07/29 09:13:32;;;;;;;2.77;1.57;;;;;;;;;;5072836;28;20194;-86
2023/07/29 09:16:01;;;;;;;3.90;2.00;;;;;;;;;;5072557;28;20249;-86
2023/07/29 09:18:30;;;;;;;4.47;2.13;;;;;;;;;;5073001;28;20200;-86
2023/07/29 09:21:01;;;;;;;2.53;2.10;;;;;;;;;;5072956;28;20219;-86
2023/07/29 09:23:30;;;;;;;2.70;1.43;;;;;;;;;;5072776;28;20310;-87
2023/07/29 09:26:05;;;;;;;4.00;3.40;;;;;;;;;;5072037;28;20273;-87
2023/07/29 09:28:35;;;;;;;6.50;2.37;;;;;;;;;;5072710;28;20196;-86
2023/07/29 09:31:04;;;;;;;5.90;2.27;;;;;;;;;;5072566;28;20236;-86
2023/07/29 09:33:36;;;;;;;1.13;1.10;;;;;;;;;;5071653;28;20231;-86
2023/07/29 09:36:10;;;;;;;2.83;1.97;;;;;;;;;;5072513;28;20280;-86
2023/07/29 09:38:39;;;;;;;3.90;2.07;;;;;;;;;;5073159;28;20206;-87
2023/07/29 09:41:09;;;;;;;3.60;2.00;;;;;;;;;;5071979;28;20230;-86
2023/07/29 09:43:37;;;;;;;2.07;1.87;;;;;;;;;;5071645;28;20226;-87
2023/07/29 09:46:07;;;;;;;1.60;1.47;;;;;;;;;;5072390;28;20206;-87
2023/07/29 09:48:36;;;;;;;1.57;1.00;;;;;;;;;;5072653;28;20296;-86
2023/07/29 09:51:11;;;;;;;3.20;2.20;;;;;;;;;;5072251;28;20203;-86
2023/07/29 09:53:44;;;;;;;1.30;1.20;;;;;;;;;;5072144;28;20215;-86
2023/07/29 09:56:16;;;;;;;2.07;1.43;;;;;;;;;;5072244;28;20235;-87
2023/07/29 09:58:45;;;;;;;3.03;1.33;;;;;;;;;;5072254;28;20203;-86
2023/07/29 10:01:15;;;;;;;1.43;1.33;;;;;;;;;;5071410;28;20193;-87
2023/07/29 10:03:44;;;;;;;7.20;2.40;;;;;;;;;;5071911;28;20245;-86
2023/07/29 10:06:12;;;;;;;3.70;1.73;;;;;;;;;;5072328;28;20283;-86
2023/07/29 10:08:41;;;;;;;4.40;1.30;;;;;;;;;;5072536;28;20209;-86
2023/07/29 10:11:10;;;;;;;1.60;1.50;;;;;;;;;;5071891;28;20204;-86
2023/07/29 10:13:40;;;;;;;3.10;1.37;;;;;;;;;;5071816;28;20222;-86
2023/07/29 10:16:10;;;;;;;1.33;1.23;;;;;;;;;;5072052;28;20210;-86
2023/07/29 10:18:39;;;;;;;1.17;1.17;;;;;;;;;;5071822;28;20206;-86
2023/07/29 10:21:07;;;;;;;10.63;2.00;;;;;;;;;;5071487;28;20205;-86
2023/07/29 10:23:39;;;;;;;1.03;1.03;;;;;;;;;;5071974;28;20342;-86
2023/07/29 10:26:09;;;;;;;4.60;0.93;;;;;;;;;;5071664;28;20209;-87
2023/07/29 10:28:39;;;;;;;3.23;1.70;;;;;;;;;;5071894;28;20202;-87
2023/07/29 10:31:10;;;;;;;6.07;1.80;;;;;;;;;;5072174;28;20199;-87
2023/07/29 10:33:40;;;;;;;4.37;2.30;;;;;;;;;;5071464;28;20306;-87
2023/07/29 10:36:09;;;;;;;1.53;1.43;;;;;;;;;;5071568;28;20229;-87
2023/07/29 10:38:38;;;;;;;0.90;0.90;;;;;;;;;;5071640;28;20202;-86
2023/07/29 10:41:07;;;;;;;2.20;1.70;;;;;;;;;;5071463;28;20286;-87
2023/07/29 10:43:36;;;;;;;5.60;1.77;;;;;;;;;;5071600;28;20224;-87
2023/07/29 10:46:18;;;;;;;1.50;1.40;;;;;;;;;;5071304;28;20209;-86
2023/07/29 10:48:54;;;;;;;1.20;0.93;;;;;;;;;;5071937;28;20207;-87
2023/07/29 10:51:30;;;;;;;6.80;2.00;;;;;;;;;;5071491;28;20212;-86
2023/07/29 10:53:59;;;;;;;3.93;1.67;;;;;;;;;;5070849;28;20185;-87
2023/07/29 10:56:31;;;;;;;2.37;1.20;;;;;;;;;;5071552;28;20197;-87
2023/07/29 10:59:01;;;;;;;2.63;1.37;;;;;;;;;;5071360;28;20209;-86
2023/07/29 11:01:33;;;;;;;3.00;1.77;;;;;;;;;;5071251;28;20209;-87
2023/07/29 11:04:20;;;;;;;1.50;1.40;;;;;;;;;;5071202;28;20276;-86
2023/07/29 11:07:08;;;;;;;0.90;0.90;;;;;;;;;;5071704;28;20225;-87
2023/07/29 11:09:41;;;;;;;0.90;0.87;;;;;;;;;;5071402;28;20194;-87
2023/07/29 11:12:24;;;;;;;1.43;0.87;;;;;;;;;;5071110;28;20194;-87
2023/07/29 11:14:53;;;;;;;1.93;1.10;;;;;;;;;;5070386;28;20227;-86
2023/07/29 11:17:23;;;;;;;0.90;0.90;;;;;;;;;;5071239;28;20211;-87
2023/07/29 11:19:52;;;;;;;2.80;0.87;;;;;;;;;;5071266;28;20215;-87
2023/07/29 11:22:21;;;;;;;1.50;1.20;;;;;;;;;;5071146;28;20202;-86
2023/07/29 11:24:49;;;;;;;2.57;1.13;;;;;;;;;;5071217;28;20210;-87
2023/07/29 11:27:17;;;;;;;1.10;1.00;;;;;;;;;;5071122;28;20205;-87
2023/07/29 11:29:46;;;;;;;2.07;1.20;;;;;;;;;;5070602;28;20201;-86
2023/07/29 11:32:15;;;;;;;0.90;0.90;;;;;;;;;;5070851;28;20240;-86
2023/07/29 11:34:44;;;;;;;2.47;1.20;;;;;;;;;;5073978;28;20341;-87
2023/07/29 11:37:13;;;;;;;1.37;1.10;;;;;;;;;;5074634;28;20204;-87
2023/07/29 11:39:42;;;;;;;1.57;1.00;;;;;;;;;;5074333;28;20206;-86
2023/07/29 11:42:12;;;;;;;2.33;1.33;;;;;;;;;;5074409;28;20198;-87
2023/07/29 11:44:40;;;;;;;1.67;1.10;;;;;;;;;;5074310;28;20229;-86
2023/07/29 11:47:09;;;;;;;2.10;1.27;;;;;;;;;;5074485;28;20290;-86
2023/07/29 11:49:39;;;;;;;1.33;1.00;;;;;;;;;;5074699;28;20222;-87
2023/07/29 11:52:10;;;;;;;4.13;0.80;;;;;;;;;;5074688;28;20206;-86
2023/07/29 11:54:39;;;;;;;1.37;1.03;;;;;;;;;;5073999;28;20249;-85
2023/07/29 11:57:08;;;;;;;2.97;1.20;;;;;;;;;;5074044;28;20210;-87
2023/07/29 11:59:37;;;;;;;0.70;0.70;;;;;;;;;;5074087;28;20205;-86
2023/07/29 12:02:10;;;;;;;0.50;0.50;;;;;;;;;;5074312;28;20199;-86
2023/07/29 12:04:39;;;;;;;1.97;1.20;;;;;;;;;;5073745;28;20278;-86
2023/07/29 12:07:08;;;;;;;0.77;0.70;;;;;;;;;;5074542;28;20233;-86
2023/07/29 12:09:39;;;;;;;2.20;1.33;;;;;;;;;;5074170;28;20207;-86
2023/07/29 12:12:08;;;;;;;0.63;0.63;;;;;;;;;;5073916;28;20200;-86
2023/07/29 12:14:37;;;;;;;0.80;0.80;;;;;;;;;;5073906;28;20229;-86
2023/07/29 12:17:06;;;;;;;0.87;0.83;;;;;;;;;;5074040;28;20212;-86
2023/07/29 12:19:37;;;;;;;2.33;0.97;;;;;;;;;;5072045;28;20204;-85
2023/07/29 12:22:07;;;;;;;1.33;0.90;;;;;;;;;;5070293;28;20212;-85
2023/07/29 12:24:36;;;;;;;0.73;0.73;;;;;;;;;;5073707;28;20228;-87
2023/07/29 12:27:07;;;;;;;0.80;0.80;;;;;;;;;;5073426;28;20198;-86
2023/07/29 12:29:42;;;;;;;2.60;0.87;;;;;;;;;;5073397;28;20265;-87
2023/07/29 12:32:11;;;;;;;0.80;0.80;;;;;;;;;;5073666;28;20274;-86
2023/07/29 12:34:40;;;;;;;0.50;0.50;;;;;;;;;;5073557;28;20231;-86
2023/07/29 12:37:09;;;;;;;1.13;1.03;;;;;;;;;;5074170;28;20215;-87
2023/07/29 12:39:42;;;;;;;1.27;0.70;;;;;;;;;;5073294;28;20211;-86
2023/07/29 12:42:11;;;;;;;1.57;1.17;;;;;;;;;;5073561;28;20245;-86
2023/07/29 12:44:40;;;;;;;1.47;1.07;;;;;;;;;;5072960;28;20240;-86
2023/07/29 12:47:11;;;;;;;2.80;1.20;;;;;;;;;;5073261;28;20196;-86
2023/07/29 12:49:40;;;;;;;0.97;0.97;;;;;;;;;;5073044;28;20228;-86
2023/07/29 12:52:08;;;;;;;5.43;1.17;;;;;;;;;;5073480;28;20206;-90
2023/07/29 12:54:37;;;;;;;1.03;0.90;;;;;;;;;;5073665;28;20197;-89
2023/07/29 12:57:06;;;;;;;0.70;0.70;;;;;;;;;;5073116;28;20198;-89
2023/07/29 12:59:35;;;;;;;2.13;0.80;;;;;;;;;;5073201;28;20200;-89
2023/07/29 13:02:04;;;;;;;2.20;1.10;;;;;;;;;;5073215;28;20193;-89
2023/07/29 13:04:35;;;;;;;0.60;0.60;;;;;;;;;;5073082;28;20231;-89
2023/07/29 13:07:03;;;;;;;0.40;0.40;;;;;;;;;;5073030;28;20309;-87
2023/07/29 13:09:32;;;;;;;0.93;0.83;;;;;;;;;;5073546;28;20208;-87
2023/07/29 13:12:00;;;;;;;0.70;0.70;;;;;;;;;;5072996;28;20205;-87
2023/07/29 13:14:29;;;;;;;1.27;0.80;;;;;;;;;;5072999;28;20288;-84
2023/07/29 13:16:58;;;;;;;2.03;0.90;;;;;;;;;;5072522;28;20210;-84
2023/07/29 13:19:27;;;;;;;0.90;0.80;;;;;;;;;;5072548;28;20229;-84
2023/07/29 13:21:56;;;;;;;0.70;0.70;;;;;;;;;;5072691;28;20297;-84
2023/07/29 13:24:24;;;;;;;0.80;0.80;;;;;;;;;;5072140;28;20228;-84
2023/07/29 13:26:52;;;;;;;3.37;0.97;;;;;;;;;;5072361;28;20208;-84
2023/07/29 13:29:21;;;;;;;1.90;1.10;;;;;;;;;;5072785;28;20225;-84
2023/07/29 13:31:49;;;;;;;0.70;0.70;;;;;;;;;;5072083;28;20217;-85
2023/07/29 13:34:19;;;;;;;2.53;0.80;;;;;;;;;;5071874;28;20276;-84
2023/07/29 13:36:48;;;;;;;2.10;0.67;;;;;;;;;;5072708;28;20207;-84
2023/07/29 13:39:17;;;;;;;0.50;0.50;;;;;;;;;;5072794;28;20301;-84
2023/07/29 13:41:45;;;;;;;1.37;1.37;;;;;;;;;;5071995;28;20205;-84
2023/07/29 13:44:13;;;;;;;1.00;0.77;;;;;;;;;;5072456;28;20231;-84
2023/07/29 13:46:42;;;;;;;0.63;0.60;;;;;;;;;;5071987;28;20263;-84
2023/07/29 13:49:11;;;;;;;0.70;0.70;;;;;;;;;;5072303;28;20195;-84
2023/07/29 13:51:42;;;;;;;1.03;0.93;;;;;;;;;;5071713;28;20205;-87
2023/07/29 13:54:11;;;;;;;1.97;1.83;;;;;;;;;;5072367;28;20212;-86
2023/07/29 13:56:39;;;;;;;3.13;1.10;;;;;;;;;;5071548;28;20190;-87
2023/07/29 13:59:08;;;;;;;2.00;0.67;;;;;;;;;;5071825;28;20275;-86
2023/07/29 14:01:36;;;;;;;2.30;1.10;;;;;;;;;;5071960;28;20209;-86
2023/07/29 14:04:05;;;;;;;1.20;0.90;;;;;;;;;;5072090;28;20271;-86
2023/07/29 14:06:34;;;;;;;1.40;1.10;;;;;;;;;;5071785;28;20242;-87
2023/07/29 14:09:15;;;;;;;2.53;1.30;;;;;;;;;;5071748;28;20203;-87
2023/07/29 14:11:43;;;;;;;1.10;1.10;;;;;;;;;;5071794;28;20199;-86
2023/07/29 14:14:12;;;;;;;4.87;0.87;;;;;;;;;;5071928;28;20198;-85
2023/07/29 14:16:40;;;;;;;1.03;0.90;;;;;;;;;;5071323;28;20195;-84
2023/07/29 14:19:09;;;;;;;0.87;0.87;;;;;;;;;;5071936;28;20235;-84
2023/07/29 14:21:37;;;;;;;0.77;0.77;;;;;;;;;;5071901;28;20205;-84
2023/07/29 14:24:06;;;;;;;1.83;0.90;;;;;;;;;;5071413;28;20193;-84
2023/07/29 14:26:35;;;;;;;1.00;1.00;;;;;;;;;;5071396;28;20209;-84
2023/07/29 14:29:04;;;;;;;0.77;0.70;;;;;;;;;;5072054;28;20196;-84
2023/07/29 14:31:33;;;;;;;0.40;0.40;;;;;;;;;;5071619;28;20199;-84
2023/07/29 14:34:01;;;;;;;1.07;0.97;;;;;;;;;;5071236;28;20234;-84
2023/07/29 14:36:30;;;;;;;0.80;0.80;;;;;;;;;;5071684;28;20212;-86
2023/07/29 14:38:58;;;;;;;2.43;0.90;;;;;;;;;;5071800;28;20206;-87
2023/07/29 14:41:27;;;;;;;2.63;1.07;;;;;;;;;;5071537;28;20212;-87
2023/07/29 14:43:56;;;;;;;1.03;0.90;;;;;;;;;;5070937;28;20199;-87
2023/07/29 14:46:25;;;;;;;2.37;1.23;;;;;;;;;;5071486;28;20240;-86
2023/07/29 14:48:53;;;;;;;0.73;0.73;;;;;;;;;;5072007;28;20210;-86
2023/07/29 14:51:23;;;;;;;1.70;1.53;;;;;;;;;;5071762;28;20238;-86
2023/07/29 14:53:51;;;;;;;2.53;1.27;;;;;;;;;;5071149;28;20214;-86
2023/07/29 14:56:20;;;;;;;2.50;0.90;;;;;;;;;;5071562;28;20207;-86